createdAt,value
2018-07-21T00:00:49.431Z,63.40
2018-07-21T00:03:17.219Z,63.00
2018-07-21T00:05:44.970Z,63.10
2018-07-21T00:08:12.687Z,63.70
2018-07-21T00:10:40.356Z,64.50
2018-07-21T00:13:08.086Z,64.80
2018-07-21T00:15:35.803Z,64.90
2018-07-21T00:18:03.531Z,65.70
2018-07-21T00:20:31.316Z,66.40
2018-07-21T00:22:59.090Z,66.80
2018-07-21T00:25:26.890Z,66.90
2018-07-21T00:27:54.614Z,66.70
2018-07-21T00:30:22.347Z,66.90
2018-07-21T00:32:50.122Z,67.30
2018-07-21T00:35:17.826Z,67.80
2018-07-21T00:37:45.538Z,68.30
2018-07-21T00:40:13.247Z,68.90
2018-07-21T00:42:41.006Z,69.20
2018-07-21T00:45:08.767Z,69.60
2018-07-21T00:47:36.606Z,70.00
2018-07-21T00:50:04.995Z,70.50
2018-07-21T00:52:32.830Z,70.80
2018-07-21T00:55:00.565Z,72.10
2018-07-21T00:57:28.326Z,73.00
2018-07-21T00:59:56.082Z,73.40
2018-07-21T01:02:23.951Z,73.50
2018-07-21T01:04:51.758Z,73.40
2018-07-21T01:07:19.631Z,74.50
2018-07-21T01:09:47.361Z,74.30
2018-07-21T01:12:15.141Z,74.70
2018-07-21T01:14:42.866Z,75.30
2018-07-21T01:17:10.683Z,75.60
2018-07-21T01:19:38.437Z,75.90
2018-07-21T01:22:06.454Z,76.60
2018-07-21T01:24:34.238Z,77.20
2018-07-21T01:27:01.962Z,77.70
2018-07-21T01:29:29.923Z,78.50
2018-07-21T01:31:57.826Z,78.80
2018-07-21T01:34:25.562Z,79.20
2018-07-21T01:36:53.265Z,79.80
2018-07-21T01:39:20.968Z,80.10
2018-07-21T01:41:48.780Z,80.20
2018-07-21T01:44:16.602Z,80.40
2018-07-21T01:46:44.424Z,80.40
2018-07-21T01:49:12.220Z,80.80
2018-07-21T01:51:39.999Z,81.50
2018-07-21T01:54:07.755Z,81.90
2018-07-21T01:56:35.479Z,82.40
2018-07-21T01:59:03.502Z,82.70
2018-07-21T02:01:31.347Z,82.90
2018-07-21T02:03:59.062Z,83.10
2018-07-21T02:06:26.746Z,83.10
2018-07-21T02:08:54.534Z,83.60
2018-07-21T02:11:22.201Z,83.60
2018-07-21T02:13:49.966Z,83.80
2018-07-21T02:16:17.730Z,84.50
2018-07-21T02:18:45.444Z,84.90
2018-07-21T02:21:13.163Z,85.50
2018-07-21T02:23:40.941Z,85.50
2018-07-21T02:26:08.674Z,85.40
2018-07-21T02:28:36.426Z,85.50
2018-07-21T02:31:04.251Z,85.50
2018-07-21T02:33:31.951Z,85.60
2018-07-21T02:35:59.675Z,85.90
2018-07-21T02:38:27.388Z,85.90
2018-07-21T02:40:55.109Z,86.00
2018-07-21T02:43:22.832Z,85.80
2018-07-21T02:45:50.563Z,86.00
2018-07-21T02:48:18.366Z,86.80
2018-07-21T02:50:46.102Z,87.50
2018-07-21T02:53:13.857Z,87.80
2018-07-21T02:55:41.584Z,88.20
2018-07-21T02:58:09.392Z,87.80
2018-07-21T03:00:37.100Z,87.90
2018-07-21T03:03:04.883Z,87.90
2018-07-21T03:05:32.636Z,87.50
2018-07-21T03:08:00.352Z,87.00
2018-07-21T03:10:28.168Z,86.80
2018-07-21T03:12:55.829Z,87.10
2018-07-21T03:15:23.579Z,87.00
2018-07-21T03:17:51.342Z,87.20
2018-07-21T03:20:19.088Z,87.50
2018-07-21T03:22:46.878Z,88.00
2018-07-21T03:25:14.584Z,88.00
2018-07-21T03:27:42.257Z,88.10
2018-07-21T03:30:09.962Z,87.90
2018-07-21T03:32:37.698Z,87.70
2018-07-21T03:35:05.430Z,87.80
2018-07-21T03:37:33.123Z,88.40
2018-07-21T03:40:00.996Z,87.00
2018-07-21T03:42:28.802Z,86.50
2018-07-21T03:44:56.584Z,86.50
2018-07-21T03:47:24.297Z,86.20
2018-07-21T03:49:52.012Z,86.70
2018-07-21T03:52:19.927Z,86.30
2018-07-21T03:57:15.234Z,85.60
2018-07-21T03:59:42.987Z,86.10
2018-07-21T04:02:10.875Z,86.80
2018-07-21T04:04:38.655Z,87.20
2018-07-21T04:07:06.535Z,87.30
2018-07-21T04:09:34.327Z,87.00
2018-07-21T04:12:02.109Z,86.90
2018-07-21T04:14:29.874Z,86.90
2018-07-21T04:16:57.611Z,86.80
2018-07-21T04:19:25.472Z,87.10
2018-07-21T04:21:53.123Z,86.80
2018-07-21T04:24:20.784Z,86.60
2018-07-21T04:26:48.537Z,86.60
2018-07-21T04:29:16.346Z,87.00
2018-07-21T04:31:44.135Z,87.70
2018-07-21T04:34:11.809Z,87.60
2018-07-21T04:36:39.577Z,87.80
2018-07-21T04:39:08.907Z,88.20
2018-07-21T04:41:36.594Z,88.50
2018-07-21T04:44:04.874Z,88.50
2018-07-21T04:46:32.654Z,88.60
2018-07-21T04:49:00.417Z,88.30
2018-07-21T04:51:28.190Z,88.20
2018-07-21T04:53:55.968Z,87.90
2018-07-21T04:56:23.667Z,88.30
2018-07-21T04:58:51.415Z,88.90
2018-07-21T05:01:19.265Z,90.00
2018-07-21T05:03:47.010Z,90.40
2018-07-21T05:06:14.709Z,90.60
2018-07-21T05:08:42.460Z,90.70
2018-07-21T05:11:10.115Z,90.90
2018-07-21T05:13:37.790Z,91.10
2018-07-21T05:16:05.791Z,91.00
2018-07-21T05:18:33.574Z,90.80
2018-07-21T05:21:01.349Z,90.80
2018-07-21T05:23:29.118Z,90.90
2018-07-21T05:25:56.874Z,91.20
2018-07-21T05:28:24.667Z,91.40
2018-07-21T05:30:52.412Z,91.40
2018-07-21T05:33:20.134Z,91.40
2018-07-21T05:35:47.846Z,91.70
2018-07-21T05:38:15.569Z,91.00
2018-07-21T05:40:43.286Z,90.60
2018-07-21T05:43:11.026Z,90.30
2018-07-21T05:45:38.726Z,90.30
2018-07-21T05:48:06.462Z,90.10
2018-07-21T05:50:34.192Z,89.80
2018-07-21T05:53:01.959Z,89.80
2018-07-21T05:55:29.650Z,89.70
2018-07-21T05:57:57.314Z,90.00
2018-07-21T06:00:24.958Z,89.60
2018-07-21T06:02:52.700Z,89.40
2018-07-21T06:07:48.083Z,88.80
2018-07-21T06:10:15.766Z,89.10
2018-07-21T06:12:43.542Z,89.10
2018-07-21T06:15:11.291Z,88.60
2018-07-21T06:17:39.042Z,88.50
2018-07-21T06:20:07.102Z,87.80
2018-07-21T06:22:34.929Z,87.80
2018-07-21T06:25:02.760Z,87.90
2018-07-21T06:27:30.494Z,88.00
2018-07-21T06:29:58.263Z,88.00
2018-07-21T06:32:26.072Z,87.00
2018-07-21T06:34:53.869Z,87.60
2018-07-21T06:37:21.594Z,87.10
2018-07-21T06:39:49.362Z,86.60
2018-07-21T06:42:17.095Z,87.50
2018-07-21T06:44:44.795Z,86.50
2018-07-21T06:47:12.587Z,87.30
2018-07-21T06:49:40.281Z,87.80
2018-07-21T06:52:08.067Z,88.40
2018-07-21T06:54:35.833Z,88.30
2018-07-21T06:57:03.584Z,87.70
2018-07-21T06:59:31.271Z,87.80
2018-07-21T07:01:58.980Z,87.50
2018-07-21T07:04:26.675Z,87.10
2018-07-21T07:06:54.377Z,86.60
2018-07-21T07:09:22.047Z,86.60
2018-07-21T07:11:49.796Z,86.90
2018-07-21T07:14:17.538Z,86.40
2018-07-21T07:16:45.310Z,86.30
2018-07-21T07:19:12.966Z,86.10
2018-07-21T07:21:40.638Z,86.60
2018-07-21T07:24:08.379Z,86.70
2018-07-21T07:26:36.043Z,86.90
2018-07-21T07:29:03.726Z,87.60
2018-07-21T07:31:31.338Z,88.50
2018-07-21T07:33:59.053Z,87.90
2018-07-21T07:36:26.783Z,87.80
2018-07-21T07:38:54.491Z,87.40
2018-07-21T07:41:22.233Z,87.90
2018-07-21T07:43:49.879Z,90.00
2018-07-21T07:46:17.613Z,90.30
2018-07-21T07:48:45.313Z,90.40
2018-07-21T07:51:12.994Z,90.90
2018-07-21T07:53:40.727Z,90.80
2018-07-21T07:56:08.403Z,91.30
2018-07-21T07:58:36.106Z,91.80
2018-07-21T08:01:03.846Z,92.20
2018-07-21T08:03:31.614Z,92.30
2018-07-21T08:05:59.282Z,92.50
2018-07-21T08:08:27.071Z,92.50
2018-07-21T08:10:54.731Z,92.60
2018-07-21T08:13:22.490Z,92.60
2018-07-21T08:15:50.272Z,92.10
2018-07-21T08:18:18.068Z,92.40
2018-07-21T08:20:45.735Z,92.30
2018-07-21T08:23:13.434Z,92.70
2018-07-21T08:25:41.082Z,93.10
2018-07-21T08:28:08.748Z,93.60
2018-07-21T08:30:36.436Z,93.60
2018-07-21T08:33:04.208Z,93.80
2018-07-21T08:35:31.877Z,94.00
2018-07-21T08:37:59.562Z,94.10
2018-07-21T08:40:27.198Z,94.00
2018-07-21T08:42:54.920Z,94.20
2018-07-21T08:45:22.606Z,94.10
2018-07-21T08:47:50.313Z,94.20
2018-07-21T08:50:18.198Z,94.10
2018-07-21T08:52:46.006Z,94.10
2018-07-21T08:55:13.766Z,94.20
2018-07-21T08:57:41.479Z,94.50
2018-07-21T09:00:09.143Z,94.50
2018-07-21T09:02:37.358Z,95.10
2018-07-21T09:05:05.419Z,94.40
2018-07-21T09:07:33.176Z,94.80
2018-07-21T09:10:00.911Z,94.80
2018-07-21T09:12:28.605Z,95.00
2018-07-21T09:14:56.364Z,95.50
2018-07-21T09:17:24.445Z,95.50
2018-07-21T09:19:52.476Z,95.60
2018-07-21T09:22:20.574Z,95.70
2018-07-21T09:24:48.818Z,95.50
2018-07-21T09:27:16.692Z,95.40
2018-07-21T09:29:44.542Z,95.40
2018-07-21T09:32:12.568Z,95.20
2018-07-21T09:34:40.326Z,95.20
2018-07-21T09:37:08.083Z,95.40
2018-07-21T09:42:03.523Z,95.80
2018-07-21T09:44:31.331Z,96.50
2018-07-21T09:46:59.158Z,97.20
2018-07-21T09:49:26.932Z,98.00
2018-07-21T09:51:54.639Z,99.00
2018-07-21T09:54:22.409Z,99.40
2018-07-21T09:56:50.088Z,99.70
2018-07-21T09:59:17.792Z,99.70
2018-07-21T10:01:45.497Z,99.60
2018-07-21T10:04:13.206Z,99.80
2018-07-21T10:06:40.867Z,99.70
2018-07-21T10:09:09.715Z,99.60
2018-07-21T10:14:05.642Z,98.10
2018-07-21T10:16:33.415Z,98.20
2018-07-21T10:19:01.180Z,97.90
2018-07-21T10:21:28.886Z,97.50
2018-07-21T10:24:01.153Z,97.70
2018-07-21T10:26:34.295Z,97.50
2018-07-21T10:29:07.215Z,97.80
2018-07-21T10:31:35.587Z,98.20
2018-07-21T10:34:03.245Z,97.60
2018-07-21T10:36:30.981Z,97.80
2018-07-21T10:38:58.687Z,97.70
2018-07-21T10:41:27.022Z,98.30
2018-07-21T10:43:55.103Z,98.10
2018-07-21T10:46:23.188Z,98.00
2018-07-21T10:48:51.603Z,98.10
2018-07-21T10:51:23.282Z,98.20
2018-07-21T10:53:51.014Z,98.40
2018-07-21T10:56:18.723Z,98.90
2018-07-21T10:58:46.519Z,99.10
2018-07-21T11:01:14.242Z,99.10
2018-07-21T11:03:41.939Z,99.70
2018-07-21T11:06:09.818Z,99.90
2018-07-21T11:08:37.816Z,99.40
2018-07-21T11:11:05.891Z,99.80
2018-07-21T11:13:33.675Z,98.90
2018-07-21T11:16:02.263Z,98.80
2018-07-21T11:18:30.031Z,99.00
2018-07-21T11:20:57.878Z,98.90
2018-07-21T11:23:25.709Z,98.60
2018-07-21T11:25:53.950Z,98.70
2018-07-21T11:28:21.736Z,98.60
2018-07-21T11:30:49.496Z,98.20
2018-07-21T11:33:17.214Z,98.60
2018-07-21T11:35:45.293Z,99.30
2018-07-21T11:38:12.978Z,99.10
2018-07-21T11:40:40.711Z,99.20
2018-07-21T11:43:08.734Z,99.00
2018-07-21T11:45:36.611Z,98.60
2018-07-21T11:48:04.660Z,98.60
2018-07-21T11:50:32.666Z,98.90
2018-07-21T11:53:00.340Z,98.40
2018-07-21T11:55:28.074Z,99.40
2018-07-21T11:57:55.779Z,99.20
2018-07-21T12:00:23.542Z,99.00
2018-07-21T12:02:51.267Z,98.90
2018-07-21T12:05:19.966Z,98.70
2018-07-21T12:07:47.681Z,98.30
2018-07-21T12:10:15.458Z,97.60
2018-07-21T12:12:43.172Z,98.30
2018-07-21T12:15:11.067Z,98.60
2018-07-21T12:17:38.763Z,97.90
2018-07-21T12:20:06.506Z,98.40
2018-07-21T12:22:34.251Z,97.70
2018-07-21T12:25:01.975Z,97.20
2018-07-21T12:27:29.619Z,96.90
2018-07-21T12:29:57.320Z,96.70
2018-07-21T12:32:25.062Z,96.70
2018-07-21T12:34:52.858Z,96.00
2018-07-21T12:37:20.575Z,95.70
2018-07-21T12:39:48.354Z,95.20
2018-07-21T12:42:16.188Z,95.70
2018-07-21T12:44:43.943Z,95.00
2018-07-21T12:47:11.985Z,92.60
2018-07-21T12:49:40.052Z,93.20
2018-07-21T12:52:08.520Z,93.20
2018-07-21T12:54:36.271Z,92.10
2018-07-21T12:57:04.270Z,92.60
2018-07-21T12:59:31.990Z,91.70
2018-07-21T13:01:59.791Z,91.10
2018-07-21T13:04:27.559Z,91.20
2018-07-21T13:06:55.317Z,89.40
2018-07-21T13:09:23.087Z,87.30
2018-07-21T13:11:50.926Z,86.70
2018-07-21T13:14:18.665Z,87.10
2018-07-21T13:16:46.379Z,85.10
2018-07-21T13:19:14.170Z,85.60
2018-07-21T13:21:41.903Z,84.20
2018-07-21T13:24:10.088Z,82.50
2018-07-21T13:26:37.824Z,81.60
2018-07-21T13:29:05.842Z,81.90
2018-07-21T13:31:33.565Z,81.80
2018-07-21T13:34:01.256Z,81.80
2018-07-21T13:36:28.918Z,82.00
2018-07-21T13:38:56.638Z,81.90
2018-07-21T13:41:24.368Z,81.00
2018-07-21T13:43:52.011Z,78.30
2018-07-21T13:46:19.701Z,76.00
2018-07-21T13:48:47.402Z,77.10
2018-07-21T13:51:15.138Z,78.00
2018-07-21T13:53:42.855Z,78.50
2018-07-21T13:56:10.599Z,77.40
2018-07-21T13:58:38.343Z,76.90
2018-07-21T14:01:06.383Z,76.80
2018-07-21T14:03:34.130Z,76.90
2018-07-21T14:06:01.895Z,75.90
2018-07-21T14:08:29.706Z,77.10
2018-07-21T14:10:57.427Z,79.20
2018-07-21T14:13:25.668Z,80.10
2018-07-21T14:15:54.026Z,79.60
2018-07-21T14:18:23.282Z,80.50
2018-07-21T14:20:51.091Z,80.50
2018-07-21T14:23:18.851Z,78.10
2018-07-21T14:25:46.571Z,78.50
2018-07-21T14:28:14.451Z,79.50
2018-07-21T14:30:42.298Z,78.60
2018-07-21T14:33:10.062Z,77.90
2018-07-21T14:35:37.802Z,76.30
2018-07-21T14:38:05.732Z,77.20
2018-07-21T14:40:33.606Z,78.10
2018-07-21T14:43:01.299Z,78.90
2018-07-21T14:45:29.055Z,78.50
2018-07-21T14:47:56.830Z,78.30
2018-07-21T14:50:24.751Z,78.20
2018-07-21T14:52:53.495Z,78.60
2018-07-21T14:55:21.234Z,78.40
2018-07-21T14:57:48.945Z,78.70
2018-07-21T15:00:16.651Z,79.50
2018-07-21T15:02:44.310Z,79.60
2018-07-21T15:05:12.159Z,78.60
2018-07-21T15:07:39.975Z,78.50
2018-07-21T15:10:07.702Z,78.80
2018-07-21T15:12:35.496Z,79.00
2018-07-21T15:15:03.290Z,78.70
2018-07-21T15:17:31.062Z,79.70
2018-07-21T15:19:59.058Z,78.90
2018-07-21T15:22:27.105Z,78.20
2018-07-21T15:24:54.879Z,78.10
2018-07-21T15:27:22.701Z,77.80
2018-07-21T15:29:50.404Z,77.80
2018-07-21T15:32:18.154Z,78.20
2018-07-21T15:34:45.899Z,78.20
2018-07-21T15:37:13.656Z,78.10
2018-07-21T15:39:41.427Z,78.40
2018-07-21T15:42:09.482Z,79.30
2018-07-21T15:44:38.274Z,79.40
2018-07-21T15:47:06.352Z,79.00
2018-07-21T15:49:34.110Z,78.90
2018-07-21T15:52:01.823Z,79.30
2018-07-21T15:54:29.564Z,79.10
2018-07-21T15:56:57.554Z,78.90
2018-07-21T15:59:26.007Z,79.60
2018-07-21T16:01:58.430Z,80.10
2018-07-21T16:04:26.280Z,79.80
2018-07-21T16:06:54.214Z,80.20
2018-07-21T16:09:21.928Z,80.00
2018-07-21T16:11:49.630Z,82.30
2018-07-21T16:16:44.985Z,92.10
2018-07-21T16:19:12.748Z,93.90
2018-07-21T16:21:40.474Z,94.70
2018-07-21T16:24:08.219Z,94.70
2018-07-21T16:26:36.271Z,94.90
2018-07-21T16:29:04.359Z,95.00
2018-07-21T16:31:35.982Z,95.20
2018-07-21T16:34:03.878Z,94.90
2018-07-21T16:36:31.594Z,94.80
2018-07-21T16:39:01.156Z,94.80
2018-07-21T16:41:29.118Z,94.70
2018-07-21T16:43:56.890Z,94.80
2018-07-21T16:46:24.692Z,95.30
2018-07-21T16:48:52.394Z,95.70
2018-07-21T16:51:20.110Z,95.80
2018-07-21T16:53:47.923Z,95.90
2018-07-21T16:56:15.645Z,96.40
2018-07-21T16:58:43.368Z,96.90
2018-07-21T17:01:11.139Z,97.30
2018-07-21T17:03:38.803Z,97.60
2018-07-21T17:06:06.949Z,97.80
2018-07-21T17:08:34.768Z,98.00
2018-07-21T17:11:03.166Z,98.30
2018-07-21T17:13:30.907Z,98.40
2018-07-21T17:18:26.874Z,98.60
2018-07-21T17:20:55.758Z,98.90
2018-07-21T17:23:23.467Z,99.10
2018-07-21T17:25:51.482Z,99.20
2018-07-21T17:28:19.231Z,99.40
2018-07-21T17:30:46.907Z,99.30
2018-07-21T17:33:15.553Z,99.40
2018-07-21T17:35:43.343Z,99.70
2018-07-21T17:38:11.034Z,99.80
2018-07-21T17:40:38.848Z,99.90
2018-07-21T17:43:06.638Z,99.90
2018-07-21T17:45:34.345Z,99.90
2018-07-21T17:48:02.118Z,99.60
2018-07-21T17:50:29.864Z,99.70
2018-07-21T17:52:58.212Z,99.80
2018-07-21T17:55:25.997Z,99.90
2018-07-21T17:57:53.721Z,99.90
2018-07-21T18:00:21.503Z,99.90
2018-07-21T18:02:49.189Z,99.90
2018-07-21T18:05:18.995Z,99.90
2018-07-21T18:07:46.700Z,99.90
2018-07-21T18:10:15.002Z,99.90
2018-07-21T18:12:43.309Z,99.90
2018-07-21T18:15:11.113Z,99.60
2018-07-21T18:17:39.104Z,99.50
2018-07-21T18:20:06.872Z,99.60
2018-07-21T18:22:34.594Z,99.30
2018-07-21T18:25:02.471Z,99.40
2018-07-21T18:27:30.170Z,99.30
2018-07-21T18:29:57.967Z,99.50
2018-07-21T18:32:25.656Z,99.30
2018-07-21T18:34:53.424Z,99.40
2018-07-21T18:37:21.551Z,99.70
2018-07-21T18:39:49.285Z,99.70
2018-07-21T18:42:17.004Z,99.20
2018-07-21T18:44:44.767Z,99.60
2018-07-21T18:47:12.620Z,99.90
2018-07-21T18:49:40.392Z,99.90
2018-07-21T18:52:08.588Z,99.90
2018-07-21T18:54:36.296Z,99.90
2018-07-21T18:57:04.524Z,99.90
2018-07-21T18:59:32.401Z,99.90
2018-07-21T19:02:00.315Z,99.90
2018-07-21T19:04:28.130Z,99.90
2018-07-21T19:06:56.300Z,99.90
2018-07-21T19:09:27.099Z,99.90
2018-07-21T19:12:02.952Z,99.90
2018-07-21T19:14:32.678Z,99.90
2018-07-21T19:17:02.985Z,99.90
2018-07-21T19:19:36.806Z,99.90
2018-07-21T19:22:05.876Z,99.90
2018-07-21T19:24:35.386Z,99.90
2018-07-21T19:27:10.357Z,99.90
2018-07-21T19:29:40.460Z,99.90
2018-07-21T19:32:15.648Z,99.90
2018-07-21T19:34:46.450Z,99.90
2018-07-21T19:37:21.576Z,99.90
2018-07-21T19:39:51.199Z,99.90
2018-07-21T19:42:19.241Z,99.90
2018-07-21T19:44:47.018Z,99.90
2018-07-21T19:49:42.396Z,99.90
2018-07-21T19:52:10.146Z,99.90
2018-07-21T19:54:37.955Z,99.90
2018-07-21T19:57:06.086Z,99.90
2018-07-21T19:59:33.813Z,99.90
2018-07-21T20:04:29.134Z,99.90
2018-07-21T20:06:57.027Z,99.70
2018-07-21T20:09:24.970Z,99.70
2018-07-21T20:11:52.694Z,99.90
2018-07-21T20:14:20.602Z,99.90
2018-07-21T20:19:16.043Z,99.90
2018-07-21T20:21:43.804Z,99.90
2018-07-21T20:24:11.659Z,99.90
2018-07-21T20:26:39.322Z,99.90
2018-07-21T20:29:07.201Z,99.90
2018-07-21T20:31:34.954Z,99.90
2018-07-21T20:34:02.806Z,99.90
2018-07-21T20:36:30.622Z,99.90
2018-07-21T20:38:58.340Z,99.90
2018-07-21T20:41:26.111Z,99.90
2018-07-21T20:43:53.882Z,99.60
2018-07-21T20:46:21.648Z,99.80
2018-07-21T20:48:49.362Z,99.70
2018-07-21T20:51:17.822Z,99.50
2018-07-21T20:53:45.773Z,99.20
2018-07-21T20:56:13.451Z,98.90
2018-07-21T20:58:41.222Z,98.90
2018-07-21T21:01:08.899Z,98.80
2018-07-21T21:03:37.135Z,98.60
2018-07-21T21:06:04.910Z,98.60
2018-07-21T21:08:32.722Z,98.40
2018-07-21T21:11:00.600Z,97.90
2018-07-21T21:13:28.307Z,97.80
2018-07-21T21:15:56.516Z,97.50
2018-07-21T21:18:24.294Z,97.50
2018-07-21T21:20:52.295Z,97.60
2018-07-21T21:23:20.110Z,97.50
2018-07-21T21:25:47.845Z,97.30
2018-07-21T21:28:15.699Z,97.40
2018-07-21T21:30:44.353Z,97.50
2018-07-21T21:33:12.071Z,97.60
2018-07-21T21:35:40.091Z,97.50
2018-07-21T21:38:08.210Z,97.40
2018-07-21T21:40:35.984Z,97.30
2018-07-21T21:43:04.025Z,97.10
2018-07-21T21:45:31.938Z,96.90
2018-07-21T21:47:59.785Z,97.00
2018-07-21T21:50:27.627Z,97.00
2018-07-21T21:52:55.371Z,97.20
2018-07-21T21:55:23.756Z,97.00
2018-07-21T21:57:51.815Z,97.20
2018-07-21T22:00:19.605Z,97.10
2018-07-21T22:02:47.726Z,97.10
2018-07-21T22:05:15.419Z,97.40
2018-07-21T22:07:43.333Z,97.60
2018-07-21T22:10:11.474Z,97.80
2018-07-21T22:12:39.474Z,98.10
2018-07-21T22:15:12.146Z,98.10
2018-07-21T22:17:39.844Z,98.00
2018-07-21T22:20:07.551Z,98.20
2018-07-21T22:22:35.254Z,98.30
2018-07-21T22:25:02.997Z,98.40
2018-07-21T22:27:30.751Z,98.70
2018-07-21T22:29:58.461Z,99.00
2018-07-21T22:32:26.183Z,99.00
2018-07-21T22:34:53.883Z,98.90
2018-07-21T22:37:21.612Z,99.10
2018-07-21T22:39:49.426Z,98.80
2018-07-21T22:42:17.095Z,98.80
2018-07-21T22:44:44.875Z,98.90
2018-07-21T22:47:12.664Z,98.80
2018-07-21T22:49:40.350Z,99.00
2018-07-21T22:52:08.001Z,99.10
2018-07-21T22:54:35.699Z,99.30
2018-07-21T22:57:03.446Z,99.50
2018-07-21T22:59:31.171Z,99.30
2018-07-21T23:01:58.867Z,99.30
2018-07-21T23:04:26.585Z,99.40
2018-07-21T23:06:54.246Z,99.50
2018-07-21T23:09:21.960Z,99.70
2018-07-21T23:11:49.771Z,99.90
2018-07-21T23:14:17.534Z,99.80
2018-07-21T23:16:45.334Z,99.90
2018-07-21T23:19:13.184Z,99.90
2018-07-21T23:21:40.914Z,99.90
2018-07-21T23:24:08.658Z,99.90
2018-07-21T23:26:36.541Z,99.90
2018-07-21T23:29:04.306Z,99.90
2018-07-21T23:31:32.055Z,99.90
2018-07-21T23:33:59.810Z,99.90
2018-07-21T23:36:27.629Z,99.90
2018-07-21T23:38:55.459Z,99.90
2018-07-21T23:41:23.234Z,99.90
2018-07-21T23:43:51.025Z,99.90
2018-07-21T23:46:18.769Z,99.90
2018-07-21T23:48:46.556Z,99.90
2018-07-21T23:51:14.240Z,99.90
2018-07-21T23:53:41.938Z,99.90
2018-07-21T23:56:09.641Z,99.90
2018-07-21T23:58:37.359Z,99.90
